sensor_id;sensor_type;location;lat;lon;timestamp;P1;durP1;ratioP1;P2;durP2;ratioP2
8556;SDS011;4316;53.840;10.762;2022-11-27T00:01:22;53.63;;;22.60;;
8556;SDS011;4316;53.840;10.762;2022-11-27T00:03:50;48.70;;;19.37;;
8556;SDS011;4316;53.840;10.762;2022-11-27T00:06:19;54.53;;;21.27;;
8556;SDS011;4316;53.840;10.762;2022-11-27T00:08:46;47.43;;;20.07;;
8556;SDS011;4316;53.840;10.762;2022-11-27T00:11:13;62.30;;;21.37;;
8556;SDS011;4316;53.840;10.762;2022-11-27T00:13:43;55.57;;;20.30;;
8556;SDS011;4316;53.840;10.762;2022-11-27T00:16:09;71.07;;;21.67;;
8556;SDS011;4316;53.840;10.762;2022-11-27T00:18:35;47.87;;;19.57;;
8556;SDS011;4316;53.840;10.762;2022-11-27T00:21:08;58.00;;;19.97;;
8556;SDS011;4316;53.840;10.762;2022-11-27T00:23:36;52.00;;;19.20;;
8556;SDS011;4316;53.840;10.762;2022-11-27T00:26:03;50.33;;;19.47;;
8556;SDS011;4316;53.840;10.762;2022-11-27T00:28:30;54.33;;;20.63;;
8556;SDS011;4316;53.840;10.762;2022-11-27T00:30:59;49.43;;;19.70;;
8556;SDS011;4316;53.840;10.762;2022-11-27T00:33:26;42.70;;;17.97;;
8556;SDS011;4316;53.840;10.762;2022-11-27T00:35:52;50.73;;;19.37;;
8556;SDS011;4316;53.840;10.762;2022-11-27T00:38:18;48.40;;;18.93;;
8556;SDS011;4316;53.840;10.762;2022-11-27T00:40:44;56.77;;;18.57;;
8556;SDS011;4316;53.840;10.762;2022-11-27T00:43:11;54.07;;;18.57;;
8556;SDS011;4316;53.840;10.762;2022-11-27T00:45:37;47.77;;;19.77;;
8556;SDS011;4316;53.840;10.762;2022-11-27T00:48:03;58.43;;;20.53;;
8556;SDS011;4316;53.840;10.762;2022-11-27T00:50:29;48.17;;;19.20;;
8556;SDS011;4316;53.840;10.762;2022-11-27T00:53:00;49.70;;;20.53;;
8556;SDS011;4316;53.840;10.762;2022-11-27T00:55:26;64.27;;;20.60;;
8556;SDS011;4316;53.840;10.762;2022-11-27T00:57:52;48.90;;;20.17;;
8556;SDS011;4316;53.840;10.762;2022-11-27T01:00:18;41.77;;;18.07;;
8556;SDS011;4316;53.840;10.762;2022-11-27T01:02:44;44.17;;;17.87;;
8556;SDS011;4316;53.840;10.762;2022-11-27T01:05:10;44.20;;;17.30;;
8556;SDS011;4316;53.840;10.762;2022-11-27T01:07:35;45.20;;;18.30;;
8556;SDS011;4316;53.840;10.762;2022-11-27T01:10:01;49.73;;;17.90;;
8556;SDS011;4316;53.840;10.762;2022-11-27T01:12:27;39.80;;;17.17;;
8556;SDS011;4316;53.840;10.762;2022-11-27T01:14:53;40.57;;;16.87;;
8556;SDS011;4316;53.840;10.762;2022-11-27T01:17:19;38.43;;;15.33;;
8556;SDS011;4316;53.840;10.762;2022-11-27T01:19:45;49.40;;;17.53;;
8556;SDS011;4316;53.840;10.762;2022-11-27T01:22:11;40.70;;;17.40;;
8556;SDS011;4316;53.840;10.762;2022-11-27T01:24:43;36.73;;;15.93;;
8556;SDS011;4316;53.840;10.762;2022-11-27T01:27:09;45.10;;;16.83;;
8556;SDS011;4316;53.840;10.762;2022-11-27T01:29:35;45.07;;;17.57;;
8556;SDS011;4316;53.840;10.762;2022-11-27T01:32:01;41.27;;;17.07;;
8556;SDS011;4316;53.840;10.762;2022-11-27T01:34:26;47.10;;;16.37;;
8556;SDS011;4316;53.840;10.762;2022-11-27T01:36:52;47.30;;;17.07;;
8556;SDS011;4316;53.840;10.762;2022-11-27T01:39:19;41.77;;;17.07;;
8556;SDS011;4316;53.840;10.762;2022-11-27T01:41:48;45.27;;;18.07;;
8556;SDS011;4316;53.840;10.762;2022-11-27T01:46:59;41.17;;;18.20;;
8556;SDS011;4316;53.840;10.762;2022-11-27T01:49:28;40.93;;;16.93;;
8556;SDS011;4316;53.840;10.762;2022-11-27T01:54:33;44.97;;;17.00;;
8556;SDS011;4316;53.840;10.762;2022-11-27T01:57:14;39.63;;;16.43;;
8556;SDS011;4316;53.840;10.762;2022-11-27T02:00:14;40.33;;;16.10;;
8556;SDS011;4316;53.840;10.762;2022-11-27T02:02:42;42.13;;;17.13;;
8556;SDS011;4316;53.840;10.762;2022-11-27T02:05:09;51.00;;;18.33;;
8556;SDS011;4316;53.840;10.762;2022-11-27T02:07:38;39.90;;;16.90;;
8556;SDS011;4316;53.840;10.762;2022-11-27T02:10:04;36.77;;;16.50;;
8556;SDS011;4316;53.840;10.762;2022-11-27T02:12:38;42.57;;;16.30;;
8556;SDS011;4316;53.840;10.762;2022-11-27T02:15:29;47.10;;;16.40;;
8556;SDS011;4316;53.840;10.762;2022-11-27T02:18:24;29.37;;;15.00;;
8556;SDS011;4316;53.840;10.762;2022-11-27T02:29:33;47.43;;;15.10;;
8556;SDS011;4316;53.840;10.762;2022-11-27T02:37:21;33.27;;;15.07;;
8556;SDS011;4316;53.840;10.762;2022-11-27T02:42:22;30.30;;;13.90;;
8556;SDS011;4316;53.840;10.762;2022-11-27T02:44:54;29.70;;;14.50;;
8556;SDS011;4316;53.840;10.762;2022-11-27T02:47:26;28.70;;;14.00;;
8556;SDS011;4316;53.840;10.762;2022-11-27T02:49:53;40.50;;;15.60;;
8556;SDS011;4316;53.840;10.762;2022-11-27T02:52:21;33.60;;;15.87;;
8556;SDS011;4316;53.840;10.762;2022-11-27T02:54:51;35.67;;;15.83;;
8556;SDS011;4316;53.840;10.762;2022-11-27T02:57:22;37.17;;;14.73;;
8556;SDS011;4316;53.840;10.762;2022-11-27T02:59:50;37.43;;;14.70;;
8556;SDS011;4316;53.840;10.762;2022-11-27T03:02:20;33.47;;;13.90;;
8556;SDS011;4316;53.840;10.762;2022-11-27T03:04:52;31.33;;;14.80;;
8556;SDS011;4316;53.840;10.762;2022-11-27T03:07:26;29.97;;;14.77;;
8556;SDS011;4316;53.840;10.762;2022-11-27T03:09:55;44.30;;;17.33;;
8556;SDS011;4316;53.840;10.762;2022-11-27T03:12:26;31.33;;;14.17;;
8556;SDS011;4316;53.840;10.762;2022-11-27T03:14:53;35.67;;;14.07;;
8556;SDS011;4316;53.840;10.762;2022-11-27T03:19:50;33.30;;;13.57;;
8556;SDS011;4316;53.840;10.762;2022-11-27T03:22:17;28.53;;;13.63;;
8556;SDS011;4316;53.840;10.762;2022-11-27T03:24:44;29.47;;;13.80;;
8556;SDS011;4316;53.840;10.762;2022-11-27T03:27:13;26.10;;;12.77;;
8556;SDS011;4316;53.840;10.762;2022-11-27T03:29:44;25.87;;;13.73;;
8556;SDS011;4316;53.840;10.762;2022-11-27T03:32:11;27.33;;;13.33;;
8556;SDS011;4316;53.840;10.762;2022-11-27T03:34:37;24.43;;;13.63;;
8556;SDS011;4316;53.840;10.762;2022-11-27T03:37:04;26.03;;;12.70;;
8556;SDS011;4316;53.840;10.762;2022-11-27T03:39:31;26.93;;;12.63;;
8556;SDS011;4316;53.840;10.762;2022-11-27T03:44:40;28.77;;;14.00;;
8556;SDS011;4316;53.840;10.762;2022-11-27T03:50:36;22.17;;;12.77;;
8556;SDS011;4316;53.840;10.762;2022-11-27T03:55:56;22.90;;;12.07;;
8556;SDS011;4316;53.840;10.762;2022-11-27T04:00:59;26.47;;;12.27;;
8556;SDS011;4316;53.840;10.762;2022-11-27T04:03:27;24.50;;;11.23;;
8556;SDS011;4316;53.840;10.762;2022-11-27T04:05:54;24.37;;;11.67;;
8556;SDS011;4316;53.840;10.762;2022-11-27T04:08:21;27.33;;;12.10;;
8556;SDS011;4316;53.840;10.762;2022-11-27T04:10:47;22.73;;;11.27;;
8556;SDS011;4316;53.840;10.762;2022-11-27T04:13:14;21.93;;;11.77;;
8556;SDS011;4316;53.840;10.762;2022-11-27T04:15:40;19.37;;;10.77;;
8556;SDS011;4316;53.840;10.762;2022-11-27T04:18:06;21.97;;;11.30;;
8556;SDS011;4316;53.840;10.762;2022-11-27T04:20:32;25.10;;;12.03;;
8556;SDS011;4316;53.840;10.762;2022-11-27T04:22:58;25.43;;;12.47;;
8556;SDS011;4316;53.840;10.762;2022-11-27T04:25:24;25.00;;;13.07;;
8556;SDS011;4316;53.840;10.762;2022-11-27T04:27:51;26.50;;;12.77;;
8556;SDS011;4316;53.840;10.762;2022-11-27T04:30:17;25.63;;;11.87;;
8556;SDS011;4316;53.840;10.762;2022-11-27T04:32:43;26.67;;;11.83;;
8556;SDS011;4316;53.840;10.762;2022-11-27T04:35:09;29.53;;;12.77;;
8556;SDS011;4316;53.840;10.762;2022-11-27T04:37:35;25.30;;;12.57;;
8556;SDS011;4316;53.840;10.762;2022-11-27T04:40:01;26.37;;;13.50;;
8556;SDS011;4316;53.840;10.762;2022-11-27T04:42:28;25.33;;;12.87;;
8556;SDS011;4316;53.840;10.762;2022-11-27T04:44:54;25.00;;;12.13;;
8556;SDS011;4316;53.840;10.762;2022-11-27T04:47:20;27.90;;;13.10;;
8556;SDS011;4316;53.840;10.762;2022-11-27T04:49:45;25.20;;;11.63;;
8556;SDS011;4316;53.840;10.762;2022-11-27T04:52:11;25.07;;;12.20;;
8556;SDS011;4316;53.840;10.762;2022-11-27T04:54:37;32.70;;;12.83;;
8556;SDS011;4316;53.840;10.762;2022-11-27T04:57:04;26.13;;;11.90;;
8556;SDS011;4316;53.840;10.762;2022-11-27T04:59:31;24.40;;;12.40;;
8556;SDS011;4316;53.840;10.762;2022-11-27T05:01:57;24.47;;;12.57;;
8556;SDS011;4316;53.840;10.762;2022-11-27T05:04:23;27.17;;;12.40;;
8556;SDS011;4316;53.840;10.762;2022-11-27T05:06:50;24.83;;;12.30;;
8556;SDS011;4316;53.840;10.762;2022-11-27T05:09:16;23.63;;;12.53;;
8556;SDS011;4316;53.840;10.762;2022-11-27T05:11:42;21.50;;;12.27;;
8556;SDS011;4316;53.840;10.762;2022-11-27T05:14:08;28.57;;;12.43;;
8556;SDS011;4316;53.840;10.762;2022-11-27T05:16:51;20.87;;;11.47;;
8556;SDS011;4316;53.840;10.762;2022-11-27T05:19:18;19.67;;;10.80;;
8556;SDS011;4316;53.840;10.762;2022-11-27T05:21:46;23.07;;;11.30;;
8556;SDS011;4316;53.840;10.762;2022-11-27T05:24:13;24.43;;;13.07;;
8556;SDS011;4316;53.840;10.762;2022-11-27T05:26:39;31.40;;;13.67;;
8556;SDS011;4316;53.840;10.762;2022-11-27T05:29:06;31.17;;;12.93;;
8556;SDS011;4316;53.840;10.762;2022-11-27T05:31:33;23.80;;;12.30;;
8556;SDS011;4316;53.840;10.762;2022-11-27T05:34:00;23.30;;;11.40;;
8556;SDS011;4316;53.840;10.762;2022-11-27T05:36:27;20.80;;;10.67;;
8556;SDS011;4316;53.840;10.762;2022-11-27T05:38:53;20.80;;;11.60;;
8556;SDS011;4316;53.840;10.762;2022-11-27T05:41:19;22.73;;;11.93;;
8556;SDS011;4316;53.840;10.762;2022-11-27T05:43:45;20.20;;;10.87;;
8556;SDS011;4316;53.840;10.762;2022-11-27T05:46:12;23.03;;;12.23;;
8556;SDS011;4316;53.840;10.762;2022-11-27T05:48:41;20.93;;;11.13;;
8556;SDS011;4316;53.840;10.762;2022-11-27T05:51:07;21.07;;;11.47;;
8556;SDS011;4316;53.840;10.762;2022-11-27T05:53:33;21.83;;;11.87;;
8556;SDS011;4316;53.840;10.762;2022-11-27T05:56:00;16.77;;;10.77;;
8556;SDS011;4316;53.840;10.762;2022-11-27T05:58:27;21.30;;;11.60;;
8556;SDS011;4316;53.840;10.762;2022-11-27T06:00:52;24.00;;;12.33;;
8556;SDS011;4316;53.840;10.762;2022-11-27T06:03:18;25.67;;;12.13;;
8556;SDS011;4316;53.840;10.762;2022-11-27T06:05:44;24.60;;;13.00;;
8556;SDS011;4316;53.840;10.762;2022-11-27T06:08:10;26.50;;;12.17;;
8556;SDS011;4316;53.840;10.762;2022-11-27T06:10:37;20.77;;;11.70;;
8556;SDS011;4316;53.840;10.762;2022-11-27T06:13:03;20.63;;;12.03;;
8556;SDS011;4316;53.840;10.762;2022-11-27T06:15:29;19.47;;;12.47;;
8556;SDS011;4316;53.840;10.762;2022-11-27T06:17:55;17.50;;;11.47;;
8556;SDS011;4316;53.840;10.762;2022-11-27T06:20:21;18.07;;;11.23;;
8556;SDS011;4316;53.840;10.762;2022-11-27T06:22:48;16.10;;;10.70;;
8556;SDS011;4316;53.840;10.762;2022-11-27T06:25:15;20.03;;;12.57;;
8556;SDS011;4316;53.840;10.762;2022-11-27T06:27:40;26.50;;;11.97;;
8556;SDS011;4316;53.840;10.762;2022-11-27T06:30:06;24.07;;;12.27;;
8556;SDS011;4316;53.840;10.762;2022-11-27T06:32:33;20.97;;;11.60;;
8556;SDS011;4316;53.840;10.762;2022-11-27T06:34:59;25.63;;;13.33;;
8556;SDS011;4316;53.840;10.762;2022-11-27T06:37:25;22.43;;;13.23;;
8556;SDS011;4316;53.840;10.762;2022-11-27T06:39:51;22.13;;;12.57;;
8556;SDS011;4316;53.840;10.762;2022-11-27T06:42:17;23.60;;;13.00;;
8556;SDS011;4316;53.840;10.762;2022-11-27T06:44:42;26.50;;;12.60;;
8556;SDS011;4316;53.840;10.762;2022-11-27T06:47:08;25.67;;;11.97;;
8556;SDS011;4316;53.840;10.762;2022-11-27T06:49:34;17.33;;;10.97;;
8556;SDS011;4316;53.840;10.762;2022-11-27T06:52:00;20.57;;;12.67;;
8556;SDS011;4316;53.840;10.762;2022-11-27T06:54:26;28.80;;;13.43;;
8556;SDS011;4316;53.840;10.762;2022-11-27T06:56:52;26.40;;;11.93;;
8556;SDS011;4316;53.840;10.762;2022-11-27T06:59:18;29.73;;;12.13;;
8556;SDS011;4316;53.840;10.762;2022-11-27T07:01:44;27.53;;;13.63;;
8556;SDS011;4316;53.840;10.762;2022-11-27T07:04:11;24.57;;;13.03;;
8556;SDS011;4316;53.840;10.762;2022-11-27T07:06:38;24.53;;;12.87;;
8556;SDS011;4316;53.840;10.762;2022-11-27T07:09:05;22.00;;;12.63;;
8556;SDS011;4316;53.840;10.762;2022-11-27T07:11:31;21.50;;;12.63;;
8556;SDS011;4316;53.840;10.762;2022-11-27T07:13:58;22.40;;;13.07;;
8556;SDS011;4316;53.840;10.762;2022-11-27T07:16:26;23.43;;;12.27;;
8556;SDS011;4316;53.840;10.762;2022-11-27T07:18:53;21.93;;;12.73;;
8556;SDS011;4316;53.840;10.762;2022-11-27T07:21:21;30.77;;;13.27;;
8556;SDS011;4316;53.840;10.762;2022-11-27T07:23:48;20.70;;;13.37;;
8556;SDS011;4316;53.840;10.762;2022-11-27T07:26:18;24.53;;;12.50;;
8556;SDS011;4316;53.840;10.762;2022-11-27T07:28:46;22.43;;;12.83;;
8556;SDS011;4316;53.840;10.762;2022-11-27T07:31:17;23.40;;;13.40;;
8556;SDS011;4316;53.840;10.762;2022-11-27T07:33:45;22.23;;;12.63;;
8556;SDS011;4316;53.840;10.762;2022-11-27T07:36:14;23.73;;;13.83;;
8556;SDS011;4316;53.840;10.762;2022-11-27T07:38:42;23.13;;;13.53;;
8556;SDS011;4316;53.840;10.762;2022-11-27T07:41:09;25.10;;;13.87;;
8556;SDS011;4316;53.840;10.762;2022-11-27T07:43:36;25.67;;;13.20;;
8556;SDS011;4316;53.840;10.762;2022-11-27T07:46:06;26.13;;;14.00;;
8556;SDS011;4316;53.840;10.762;2022-11-27T07:48:37;22.57;;;14.17;;
8556;SDS011;4316;53.840;10.762;2022-11-27T07:51:07;22.60;;;12.97;;
8556;SDS011;4316;53.840;10.762;2022-11-27T07:53:39;21.43;;;13.30;;
8556;SDS011;4316;53.840;10.762;2022-11-27T07:56:07;23.97;;;13.00;;
8556;SDS011;4316;53.840;10.762;2022-11-27T07:58:33;18.80;;;12.30;;
8556;SDS011;4316;53.840;10.762;2022-11-27T08:00:59;27.67;;;14.87;;
8556;SDS011;4316;53.840;10.762;2022-11-27T08:03:25;24.50;;;12.50;;
8556;SDS011;4316;53.840;10.762;2022-11-27T08:05:51;27.63;;;14.37;;
8556;SDS011;4316;53.840;10.762;2022-11-27T08:08:17;30.20;;;14.53;;
8556;SDS011;4316;53.840;10.762;2022-11-27T08:10:43;21.37;;;13.10;;
8556;SDS011;4316;53.840;10.762;2022-11-27T08:13:08;20.37;;;12.87;;
8556;SDS011;4316;53.840;10.762;2022-11-27T08:15:36;25.37;;;13.17;;
8556;SDS011;4316;53.840;10.762;2022-11-27T08:18:02;22.60;;;12.20;;
8556;SDS011;4316;53.840;10.762;2022-11-27T08:20:29;25.60;;;13.40;;
8556;SDS011;4316;53.840;10.762;2022-11-27T08:22:55;19.67;;;11.90;;
8556;SDS011;4316;53.840;10.762;2022-11-27T08:25:21;22.37;;;13.07;;
8556;SDS011;4316;53.840;10.762;2022-11-27T08:27:47;25.77;;;13.60;;
8556;SDS011;4316;53.840;10.762;2022-11-27T08:30:13;30.73;;;14.03;;
8556;SDS011;4316;53.840;10.762;2022-11-27T08:32:40;26.03;;;14.03;;
8556;SDS011;4316;53.840;10.762;2022-11-27T08:35:07;22.17;;;13.23;;
8556;SDS011;4316;53.840;10.762;2022-11-27T08:37:34;26.53;;;12.80;;
8556;SDS011;4316;53.840;10.762;2022-11-27T08:39:59;20.17;;;12.07;;
8556;SDS011;4316;53.840;10.762;2022-11-27T08:42:25;16.53;;;9.67;;
8556;SDS011;4316;53.840;10.762;2022-11-27T08:44:51;12.13;;;9.77;;
8556;SDS011;4316;53.840;10.762;2022-11-27T08:47:17;18.80;;;9.63;;
8556;SDS011;4316;53.840;10.762;2022-11-27T08:49:43;17.93;;;9.47;;
8556;SDS011;4316;53.840;10.762;2022-11-27T08:52:09;14.57;;;9.83;;
8556;SDS011;4316;53.840;10.762;2022-11-27T08:54:35;15.40;;;9.23;;
8556;SDS011;4316;53.840;10.762;2022-11-27T08:57:01;15.30;;;9.90;;
8556;SDS011;4316;53.840;10.762;2022-11-27T08:59:28;10.60;;;8.30;;
8556;SDS011;4316;53.840;10.762;2022-11-27T09:01:54;9.80;;;8.07;;
8556;SDS011;4316;53.840;10.762;2022-11-27T09:04:20;14.43;;;7.50;;
8556;SDS011;4316;53.840;10.762;2022-11-27T09:06:45;17.43;;;8.37;;
8556;SDS011;4316;53.840;10.762;2022-11-27T09:09:12;14.40;;;7.43;;
8556;SDS011;4316;53.840;10.762;2022-11-27T09:11:39;12.93;;;7.60;;
8556;SDS011;4316;53.840;10.762;2022-11-27T09:14:04;12.27;;;7.50;;
8556;SDS011;4316;53.840;10.762;2022-11-27T09:16:30;11.80;;;7.53;;
8556;SDS011;4316;53.840;10.762;2022-11-27T09:18:57;9.23;;;7.00;;
8556;SDS011;4316;53.840;10.762;2022-11-27T09:21:24;12.10;;;7.60;;
8556;SDS011;4316;53.840;10.762;2022-11-27T09:23:57;13.00;;;8.10;;
8556;SDS011;4316;53.840;10.762;2022-11-27T09:26:24;12.73;;;7.57;;
8556;SDS011;4316;53.840;10.762;2022-11-27T09:28:51;10.70;;;6.90;;
8556;SDS011;4316;53.840;10.762;2022-11-27T09:31:19;10.77;;;6.07;;
8556;SDS011;4316;53.840;10.762;2022-11-27T09:33:45;15.70;;;7.50;;
8556;SDS011;4316;53.840;10.762;2022-11-27T09:36:16;8.57;;;5.70;;
8556;SDS011;4316;53.840;10.762;2022-11-27T09:38:43;10.97;;;6.40;;
8556;SDS011;4316;53.840;10.762;2022-11-27T09:43:40;9.83;;;6.73;;
8556;SDS011;4316;53.840;10.762;2022-11-27T09:46:34;11.80;;;6.20;;
8556;SDS011;4316;53.840;10.762;2022-11-27T09:49:03;13.57;;;6.83;;
8556;SDS011;4316;53.840;10.762;2022-11-27T09:51:48;10.33;;;6.50;;
8556;SDS011;4316;53.840;10.762;2022-11-27T09:57:02;10.83;;;6.97;;
8556;SDS011;4316;53.840;10.762;2022-11-27T09:59:49;12.27;;;7.40;;
8556;SDS011;4316;53.840;10.762;2022-11-27T10:02:20;12.17;;;6.73;;
8556;SDS011;4316;53.840;10.762;2022-11-27T10:04:55;10.07;;;6.03;;
8556;SDS011;4316;53.840;10.762;2022-11-27T10:12:55;9.17;;;6.43;;
8556;SDS011;4316;53.840;10.762;2022-11-27T10:15:59;7.43;;;5.40;;
8556;SDS011;4316;53.840;10.762;2022-11-27T10:18:54;15.73;;;7.20;;
8556;SDS011;4316;53.840;10.762;2022-11-27T10:21:36;13.83;;;5.87;;
8556;SDS011;4316;53.840;10.762;2022-11-27T10:26:53;10.10;;;6.00;;
8556;SDS011;4316;53.840;10.762;2022-11-27T10:29:24;9.50;;;5.83;;
8556;SDS011;4316;53.840;10.762;2022-11-27T10:32:00;9.60;;;6.23;;
8556;SDS011;4316;53.840;10.762;2022-11-27T10:34:39;11.33;;;6.47;;
8556;SDS011;4316;53.840;10.762;2022-11-27T10:37:28;9.80;;;6.23;;
8556;SDS011;4316;53.840;10.762;2022-11-27T10:40:00;10.03;;;6.93;;
8556;SDS011;4316;53.840;10.762;2022-11-27T10:45:06;12.70;;;6.47;;
8556;SDS011;4316;53.840;10.762;2022-11-27T10:47:43;10.90;;;6.13;;
8556;SDS011;4316;53.840;10.762;2022-11-27T10:50:17;10.47;;;6.63;;
8556;SDS011;4316;53.840;10.762;2022-11-27T10:55:40;11.10;;;6.43;;
8556;SDS011;4316;53.840;10.762;2022-11-27T11:01:21;11.87;;;7.30;;
8556;SDS011;4316;53.840;10.762;2022-11-27T11:03:48;14.80;;;7.30;;
8556;SDS011;4316;53.840;10.762;2022-11-27T11:06:18;11.87;;;7.03;;
8556;SDS011;4316;53.840;10.762;2022-11-27T11:08:46;11.03;;;6.40;;
8556;SDS011;4316;53.840;10.762;2022-11-27T11:11:23;9.20;;;6.77;;
8556;SDS011;4316;53.840;10.762;2022-11-27T11:13:49;13.03;;;6.63;;
8556;SDS011;4316;53.840;10.762;2022-11-27T11:16:16;11.10;;;6.70;;
8556;SDS011;4316;53.840;10.762;2022-11-27T11:18:50;11.80;;;6.27;;
8556;SDS011;4316;53.840;10.762;2022-11-27T11:21:22;8.97;;;6.63;;
8556;SDS011;4316;53.840;10.762;2022-11-27T11:24:04;11.50;;;6.43;;
8556;SDS011;4316;53.840;10.762;2022-11-27T11:26:38;13.23;;;6.20;;
8556;SDS011;4316;53.840;10.762;2022-11-27T11:31:50;11.83;;;6.23;;
8556;SDS011;4316;53.840;10.762;2022-11-27T11:34:21;8.27;;;6.30;;
8556;SDS011;4316;53.840;10.762;2022-11-27T11:39:31;10.70;;;6.13;;
8556;SDS011;4316;53.840;10.762;2022-11-27T11:42:19;12.33;;;6.73;;
8556;SDS011;4316;53.840;10.762;2022-11-27T11:44:51;11.40;;;6.30;;
8556;SDS011;4316;53.840;10.762;2022-11-27T11:47:19;8.33;;;5.57;;
8556;SDS011;4316;53.840;10.762;2022-11-27T11:49:49;7.30;;;6.00;;
8556;SDS011;4316;53.840;10.762;2022-11-27T11:55:23;10.13;;;6.27;;
8556;SDS011;4316;53.840;10.762;2022-11-27T12:03:57;9.23;;;6.10;;
8556;SDS011;4316;53.840;10.762;2022-11-27T12:06:37;11.97;;;6.10;;
8556;SDS011;4316;53.840;10.762;2022-11-27T12:12:48;9.03;;;5.60;;
8556;SDS011;4316;53.840;10.762;2022-11-27T12:17:59;12.47;;;6.80;;
8556;SDS011;4316;53.840;10.762;2022-11-27T12:29:15;10.03;;;6.40;;
8556;SDS011;4316;53.840;10.762;2022-11-27T12:37:59;13.30;;;8.43;;
8556;SDS011;4316;53.840;10.762;2022-11-27T12:41:11;10.67;;;8.33;;
8556;SDS011;4316;53.840;10.762;2022-11-27T12:43:39;16.90;;;8.30;;
8556;SDS011;4316;53.840;10.762;2022-11-27T12:46:12;12.20;;;7.87;;
8556;SDS011;4316;53.840;10.762;2022-11-27T12:51:30;15.60;;;8.20;;
8556;SDS011;4316;53.840;10.762;2022-11-27T12:54:03;12.43;;;7.93;;
8556;SDS011;4316;53.840;10.762;2022-11-27T12:56:43;12.17;;;7.53;;
8556;SDS011;4316;53.840;10.762;2022-11-27T12:59:19;10.23;;;8.00;;
8556;SDS011;4316;53.840;10.762;2022-11-27T13:01:54;14.93;;;7.93;;
8556;SDS011;4316;53.840;10.762;2022-11-27T13:04:38;9.50;;;7.80;;
8556;SDS011;4316;53.840;10.762;2022-11-27T13:10:10;11.33;;;8.00;;
8556;SDS011;4316;53.840;10.762;2022-11-27T13:12:42;13.03;;;8.40;;
8556;SDS011;4316;53.840;10.762;2022-11-27T13:21:01;10.67;;;7.67;;
8556;SDS011;4316;53.840;10.762;2022-11-27T13:23:37;12.43;;;9.47;;
8556;SDS011;4316;53.840;10.762;2022-11-27T13:26:04;11.97;;;8.60;;
8556;SDS011;4316;53.840;10.762;2022-11-27T13:28:40;13.23;;;7.73;;
8556;SDS011;4316;53.840;10.762;2022-11-27T13:31:07;23.63;;;9.17;;
8556;SDS011;4316;53.840;10.762;2022-11-27T13:33:43;23.00;;;10.10;;
8556;SDS011;4316;53.840;10.762;2022-11-27T13:36:21;15.67;;;9.47;;
8556;SDS011;4316;53.840;10.762;2022-11-27T13:38:52;12.93;;;8.20;;
8556;SDS011;4316;53.840;10.762;2022-11-27T13:41:28;13.10;;;8.93;;
8556;SDS011;4316;53.840;10.762;2022-11-27T13:46:50;10.90;;;8.33;;
8556;SDS011;4316;53.840;10.762;2022-11-27T13:49:23;15.13;;;8.57;;
8556;SDS011;4316;53.840;10.762;2022-11-27T13:52:03;10.87;;;8.50;;
8556;SDS011;4316;53.840;10.762;2022-11-27T13:57:32;19.33;;;10.47;;
8556;SDS011;4316;53.840;10.762;2022-11-27T14:02:24;11.13;;;9.10;;
8556;SDS011;4316;53.840;10.762;2022-11-27T14:05:03;12.73;;;8.57;;
8556;SDS011;4316;53.840;10.762;2022-11-27T14:07:39;14.60;;;9.50;;
8556;SDS011;4316;53.840;10.762;2022-11-27T14:10:09;12.63;;;8.77;;
8556;SDS011;4316;53.840;10.762;2022-11-27T14:12:38;14.10;;;9.40;;
8556;SDS011;4316;53.840;10.762;2022-11-27T14:15:11;15.27;;;9.63;;
8556;SDS011;4316;53.840;10.762;2022-11-27T14:17:48;12.67;;;10.27;;
8556;SDS011;4316;53.840;10.762;2022-11-27T14:22:54;15.53;;;10.07;;
8556;SDS011;4316;53.840;10.762;2022-11-27T14:25:32;11.90;;;9.40;;
8556;SDS011;4316;53.840;10.762;2022-11-27T14:28:15;16.53;;;10.00;;
8556;SDS011;4316;53.840;10.762;2022-11-27T14:30:48;22.30;;;9.87;;
8556;SDS011;4316;53.840;10.762;2022-11-27T14:33:22;10.37;;;8.20;;
8556;SDS011;4316;53.840;10.762;2022-11-27T14:36:04;13.97;;;8.30;;
8556;SDS011;4316;53.840;10.762;2022-11-27T14:38:32;17.27;;;8.73;;
8556;SDS011;4316;53.840;10.762;2022-11-27T14:41:09;16.43;;;8.93;;
8556;SDS011;4316;53.840;10.762;2022-11-27T14:43:39;12.23;;;8.80;;
8556;SDS011;4316;53.840;10.762;2022-11-27T14:46:06;13.93;;;8.67;;
8556;SDS011;4316;53.840;10.762;2022-11-27T14:48:45;13.13;;;10.10;;
8556;SDS011;4316;53.840;10.762;2022-11-27T14:51:15;14.00;;;8.47;;
8556;SDS011;4316;53.840;10.762;2022-11-27T14:53:44;14.13;;;8.83;;
8556;SDS011;4316;53.840;10.762;2022-11-27T14:56:11;14.03;;;8.77;;
8556;SDS011;4316;53.840;10.762;2022-11-27T14:58:38;13.67;;;9.23;;
8556;SDS011;4316;53.840;10.762;2022-11-27T15:03:59;12.53;;;8.33;;
8556;SDS011;4316;53.840;10.762;2022-11-27T15:06:34;13.10;;;8.30;;
8556;SDS011;4316;53.840;10.762;2022-11-27T15:09:05;11.90;;;8.87;;
8556;SDS011;4316;53.840;10.762;2022-11-27T15:11:40;16.30;;;9.87;;
8556;SDS011;4316;53.840;10.762;2022-11-27T15:14:10;12.63;;;9.00;;
8556;SDS011;4316;53.840;10.762;2022-11-27T15:16:42;14.10;;;8.83;;
8556;SDS011;4316;53.840;10.762;2022-11-27T15:22:12;11.77;;;8.33;;
8556;SDS011;4316;53.840;10.762;2022-11-27T15:24:42;10.90;;;8.43;;
8556;SDS011;4316;53.840;10.762;2022-11-27T15:27:16;12.53;;;8.37;;
8556;SDS011;4316;53.840;10.762;2022-11-27T15:32:18;16.63;;;9.00;;
8556;SDS011;4316;53.840;10.762;2022-11-27T15:34:47;14.13;;;8.70;;
8556;SDS011;4316;53.840;10.762;2022-11-27T15:39:56;12.27;;;9.03;;
8556;SDS011;4316;53.840;10.762;2022-11-27T15:42:22;10.00;;;8.20;;
8556;SDS011;4316;53.840;10.762;2022-11-27T15:44:54;12.87;;;8.30;;
8556;SDS011;4316;53.840;10.762;2022-11-27T15:47:32;12.27;;;8.37;;
8556;SDS011;4316;53.840;10.762;2022-11-27T15:50:02;9.83;;;8.03;;
8556;SDS011;4316;53.840;10.762;2022-11-27T15:52:29;11.43;;;8.60;;
8556;SDS011;4316;53.840;10.762;2022-11-27T15:54:54;17.33;;;9.70;;
8556;SDS011;4316;53.840;10.762;2022-11-27T15:57:21;19.13;;;10.23;;
8556;SDS011;4316;53.840;10.762;2022-11-27T15:59:47;16.47;;;9.10;;
8556;SDS011;4316;53.840;10.762;2022-11-27T16:02:12;16.37;;;10.30;;
8556;SDS011;4316;53.840;10.762;2022-11-27T16:04:38;13.40;;;9.20;;
8556;SDS011;4316;53.840;10.762;2022-11-27T16:07:05;12.50;;;9.27;;
8556;SDS011;4316;53.840;10.762;2022-11-27T16:09:32;13.37;;;8.50;;
8556;SDS011;4316;53.840;10.762;2022-11-27T16:11:58;15.47;;;9.30;;
8556;SDS011;4316;53.840;10.762;2022-11-27T16:14:24;17.23;;;9.87;;
8556;SDS011;4316;53.840;10.762;2022-11-27T16:16:50;16.63;;;10.00;;
8556;SDS011;4316;53.840;10.762;2022-11-27T16:19:15;19.77;;;10.80;;
8556;SDS011;4316;53.840;10.762;2022-11-27T16:21:41;13.70;;;9.50;;
8556;SDS011;4316;53.840;10.762;2022-11-27T16:24:09;14.17;;;9.70;;
8556;SDS011;4316;53.840;10.762;2022-11-27T16:26:37;17.10;;;10.70;;
8556;SDS011;4316;53.840;10.762;2022-11-27T16:29:07;15.93;;;9.70;;
8556;SDS011;4316;53.840;10.762;2022-11-27T16:31:34;15.20;;;9.93;;
8556;SDS011;4316;53.840;10.762;2022-11-27T16:34:01;14.87;;;9.57;;
8556;SDS011;4316;53.840;10.762;2022-11-27T16:36:28;16.57;;;9.97;;
8556;SDS011;4316;53.840;10.762;2022-11-27T16:38:54;17.93;;;10.07;;
8556;SDS011;4316;53.840;10.762;2022-11-27T16:41:22;14.93;;;9.23;;
8556;SDS011;4316;53.840;10.762;2022-11-27T16:43:53;19.63;;;10.37;;
8556;SDS011;4316;53.840;10.762;2022-11-27T16:46:26;19.50;;;9.93;;
8556;SDS011;4316;53.840;10.762;2022-11-27T16:48:55;15.27;;;9.37;;
8556;SDS011;4316;53.840;10.762;2022-11-27T16:51:24;14.73;;;8.90;;
8556;SDS011;4316;53.840;10.762;2022-11-27T16:53:56;18.47;;;9.77;;
8556;SDS011;4316;53.840;10.762;2022-11-27T16:56:25;20.87;;;9.63;;
8556;SDS011;4316;53.840;10.762;2022-11-27T16:58:52;15.40;;;9.47;;
8556;SDS011;4316;53.840;10.762;2022-11-27T17:01:20;16.27;;;9.10;;